QFA926 YSSY-YBCS
Flight info
| Callsign | QFA926 |
|---|---|
| Flight time | N/A |
| Altitude | 38000 |
| Route | RIC H530 LASUD Q293 AKUMI Q147 VOMPA Q499 NONUM J64 CS |
| Aircraft | B738/M-SDE2E3FGHIRWXY/LB1 |
Departure
| Time | 2026-05-06 12:07 |
|---|---|
| Airport | Sydney Kingsford Smith International Airport (YSSY) |
Arrival
| Time | N/A |
|---|---|
| Airport | Cairns International Airport (YBCS) |
| Time | Latitude | Longitude | Altitude | Speed | Heading |
|---|---|---|---|---|---|
| 2026-05-06 11:21 | -33.93129 | 151.17756 | 28 ft | 0 kts | 191° |
| 2026-05-06 11:44 | -33.93108 | 151.17760 | 29 ft | 3 kts | 191° |
| 2026-05-06 11:44 | -33.93085 | 151.17767 | 29 ft | 3 kts | 198° |
| 2026-05-06 11:44 | -33.93065 | 151.17778 | 29 ft | 3 kts | 231° |
| 2026-05-06 11:45 | -33.93060 | 151.17792 | 29 ft | 0 kts | 280° |
| 2026-05-06 11:49 | -33.93052 | 151.17756 | 29 ft | 8 kts | 291° |
| 2026-05-06 11:49 | -33.93019 | 151.17672 | 29 ft | 14 kts | 290° |
| 2026-05-06 11:50 | -33.92990 | 151.17493 | 29 ft | 15 kts | 281° |
| 2026-05-06 11:50 | -33.92985 | 151.17453 | 29 ft | 7 kts | 269° |
| 2026-05-06 11:50 | -33.93013 | 151.17413 | 30 ft | 7 kts | 193° |
| 2026-05-06 11:50 | -33.93059 | 151.17427 | 29 ft | 8 kts | 148° |
| 2026-05-06 11:51 | -33.93087 | 151.17497 | 29 ft | 12 kts | 123° |
| 2026-05-06 11:51 | -33.93183 | 151.17540 | 29 ft | 18 kts | 167° |
| 2026-05-06 11:51 | -33.93321 | 151.17577 | 29 ft | 22 kts | 167° |
| 2026-05-06 11:51 | -33.93468 | 151.17584 | 29 ft | 21 kts | 178° |
| 2026-05-06 11:52 | -33.93567 | 151.17605 | 29 ft | 12 kts | 168° |
| 2026-05-06 11:52 | -33.93644 | 151.17634 | 29 ft | 12 kts | 154° |
| 2026-05-06 11:52 | -33.93715 | 151.17677 | 29 ft | 11 kts | 159° |
| 2026-05-06 11:52 | -33.93790 | 151.17697 | 29 ft | 11 kts | 169° |
| 2026-05-06 11:53 | -33.93860 | 151.17685 | 28 ft | 11 kts | 227° |
| 2026-05-06 11:53 | -33.93881 | 151.17602 | 28 ft | 10 kts | 255° |
| 2026-05-06 11:53 | -33.93897 | 151.17533 | 27 ft | 0 kts | 253° |
| 2026-05-06 11:57 | -33.93902 | 151.17512 | 27 ft | 6 kts | 253° |
| 2026-05-06 11:57 | -33.93925 | 151.17419 | 26 ft | 16 kts | 253° |
| 2026-05-06 11:57 | -33.93957 | 151.17282 | 27 ft | 13 kts | 254° |
| 2026-05-06 11:57 | -33.94024 | 151.17239 | 28 ft | 12 kts | 171° |
| 2026-05-06 11:58 | -33.94066 | 151.17249 | 28 ft | 0 kts | 168° |
| 2026-05-06 11:59 | -33.94068 | 151.17250 | 28 ft | 1 kts | 168° |
| 2026-05-06 11:59 | -33.94096 | 151.17257 | 28 ft | 8 kts | 168° |
| 2026-05-06 11:59 | -33.94178 | 151.17277 | 27 ft | 16 kts | 168° |
| 2026-05-06 12:00 | -33.94301 | 151.17310 | 29 ft | 21 kts | 167° |
| 2026-05-06 12:00 | -33.94460 | 151.17352 | 30 ft | 26 kts | 168° |
| 2026-05-06 12:00 | -33.94646 | 151.17399 | 29 ft | 27 kts | 168° |
| 2026-05-06 12:00 | -33.94827 | 151.17445 | 29 ft | 26 kts | 168° |
| 2026-05-06 12:01 | -33.94995 | 151.17490 | 29 ft | 24 kts | 167° |
| 2026-05-06 12:01 | -33.95152 | 151.17532 | 28 ft | 23 kts | 168° |
| 2026-05-06 12:01 | -33.95305 | 151.17571 | 28 ft | 22 kts | 168° |
| 2026-05-06 12:01 | -33.95453 | 151.17607 | 29 ft | 21 kts | 168° |
| 2026-05-06 12:02 | -33.95597 | 151.17647 | 29 ft | 21 kts | 166° |
| 2026-05-06 12:02 | -33.95736 | 151.17682 | 29 ft | 20 kts | 168° |
| 2026-05-06 12:02 | -33.95871 | 151.17717 | 29 ft | 20 kts | 167° |
| 2026-05-06 12:02 | -33.96002 | 151.17752 | 29 ft | 19 kts | 168° |
| 2026-05-06 12:03 | -33.96129 | 151.17784 | 29 ft | 18 kts | 168° |
| 2026-05-06 12:03 | -33.96250 | 151.17815 | 29 ft | 18 kts | 168° |
| 2026-05-06 12:03 | -33.96361 | 151.17843 | 29 ft | 12 kts | 168° |
| 2026-05-06 12:03 | -33.96429 | 151.17887 | 29 ft | 11 kts | 119° |
| 2026-05-06 12:04 | -33.96433 | 151.17953 | 29 ft | 0 kts | 79° |
| 2026-05-06 12:04 | -33.96431 | 151.17961 | 29 ft | 3 kts | 79° |
| 2026-05-06 12:05 | -33.96423 | 151.18008 | 29 ft | 8 kts | 77° |
| 2026-05-06 12:05 | -33.96376 | 151.18052 | 29 ft | 11 kts | 354° |
| 2026-05-06 12:05 | -33.96354 | 151.18047 | 29 ft | 0 kts | 347° |
| 2026-05-06 12:06 | -33.96251 | 151.18019 | 28 ft | 48 kts | 348° |
| 2026-05-06 12:07 | -33.95675 | 151.17872 | 28 ft | 118 kts | 347° |
| 2026-05-06 12:07 | -33.94715 | 151.17617 | 266 ft | 151 kts | 348° |
| 2026-05-06 12:07 | -33.93653 | 151.17359 | 921 ft | 161 kts | 348° |
| 2026-05-06 12:07 | -33.92619 | 151.17069 | 1868 ft | 150 kts | 342° |
| 2026-05-06 12:08 | -33.91742 | 151.16290 | 2284 ft | 174 kts | 309° |
| 2026-05-06 12:08 | -33.90869 | 151.15132 | 2580 ft | 199 kts | 317° |
| 2026-05-06 12:08 | -33.89818 | 151.13914 | 2828 ft | 219 kts | 315° |
| 2026-05-06 12:08 | -33.88723 | 151.12578 | 3271 ft | 228 kts | 314° |
| 2026-05-06 12:09 | -33.87612 | 151.11214 | 3827 ft | 237 kts | 314° |
| 2026-05-06 12:09 | -33.86417 | 151.09750 | 4319 ft | 251 kts | 314° |
| 2026-05-06 12:09 | -33.85187 | 151.08249 | 4878 ft | 254 kts | 314° |
| 2026-05-06 12:09 | -33.83943 | 151.06736 | 4950 ft | 252 kts | 314° |
| 2026-05-06 12:10 | -33.82704 | 151.05236 | 5030 ft | 255 kts | 314° |
| 2026-05-06 12:10 | -33.81440 | 151.03707 | 5661 ft | 259 kts | 314° |
| 2026-05-06 12:10 | -33.80172 | 151.02176 | 6569 ft | 258 kts | 314° |
| 2026-05-06 12:10 | -33.78899 | 151.00641 | 7312 ft | 262 kts | 314° |
| 2026-05-06 12:11 | -33.77619 | 150.99098 | 8040 ft | 266 kts | 313° |
| 2026-05-06 12:11 | -33.76304 | 150.97515 | 8806 ft | 269 kts | 313° |
| 2026-05-06 12:11 | -33.74969 | 150.95910 | 9550 ft | 273 kts | 313° |
| 2026-05-06 12:11 | -33.73617 | 150.94284 | 10265 ft | 278 kts | 313° |
| 2026-05-06 12:12 | -33.72198 | 150.92577 | 10514 ft | 300 kts | 313° |
| 2026-05-06 12:12 | -33.70698 | 150.90775 | 11029 ft | 309 kts | 314° |
| 2026-05-06 12:12 | -33.69169 | 150.88942 | 11742 ft | 311 kts | 314° |
| 2026-05-06 12:12 | -33.67633 | 150.87100 | 12524 ft | 313 kts | 314° |
| 2026-05-06 12:13 | -33.66082 | 150.85242 | 13273 ft | 316 kts | 314° |
| 2026-05-06 12:13 | -33.64512 | 150.83361 | 14030 ft | 320 kts | 314° |
| 2026-05-06 12:13 | -33.62925 | 150.81460 | 14732 ft | 323 kts | 314° |
| 2026-05-06 12:13 | -33.61326 | 150.79546 | 15443 ft | 326 kts | 314° |